createdAt,value
2023-04-08T00:00:41.044Z,6.22
2023-04-08T00:01:41.035Z,6.22
2023-04-08T00:02:41.090Z,6.22
2023-04-08T00:03:41.141Z,6.22
2023-04-08T00:04:40.799Z,6.22
2023-04-08T00:05:40.754Z,6.21
2023-04-08T00:06:40.661Z,6.21
2023-04-08T00:07:40.600Z,6.25
2023-04-08T00:08:40.544Z,6.22
2023-04-08T00:09:40.473Z,6.22
2023-04-08T00:10:40.421Z,6.22
2023-04-08T00:11:40.345Z,6.21
2023-04-08T00:12:40.341Z,6.25
2023-04-08T00:13:40.194Z,6.22
2023-04-08T00:14:40.130Z,6.25
2023-04-08T00:15:40.096Z,6.19
2023-04-08T00:16:40.101Z,6.21
2023-04-08T00:17:39.976Z,6.19
2023-04-08T00:18:39.911Z,6.21
2023-04-08T00:19:39.843Z,6.15
2023-04-08T00:20:39.752Z,6.17
2023-04-08T00:21:39.725Z,6.15
2023-04-08T00:22:39.673Z,6.12
2023-04-08T00:23:39.611Z,6.09
2023-04-08T00:24:39.549Z,6.06
2023-04-08T00:25:39.471Z,6.03
2023-04-08T00:26:39.395Z,6.03
2023-04-08T00:27:39.337Z,6.04
2023-04-08T00:28:39.274Z,6.03
2023-04-08T00:29:39.202Z,6.03
2023-04-08T00:30:39.187Z,6.06
2023-04-08T00:31:39.111Z,6.01
2023-04-08T00:32:39.067Z,5.99
2023-04-08T00:33:38.981Z,6.00
2023-04-08T00:34:38.927Z,5.97
2023-04-08T00:35:38.862Z,5.96
2023-04-08T00:36:38.762Z,5.91
2023-04-08T00:37:38.741Z,5.86
2023-04-08T00:38:38.671Z,5.89
2023-04-08T00:39:38.600Z,5.91
2023-04-08T00:40:38.541Z,5.89
2023-04-08T00:41:38.470Z,5.89
2023-04-08T00:42:38.358Z,5.86
2023-04-08T00:43:38.350Z,5.86
2023-04-08T00:44:38.258Z,5.85
2023-04-08T00:45:38.177Z,5.85
2023-04-08T00:46:38.207Z,5.85
2023-04-08T00:47:38.158Z,5.85
2023-04-08T00:48:38.015Z,5.83
2023-04-08T00:49:37.961Z,5.85
2023-04-08T00:50:37.887Z,5.85
2023-04-08T00:51:37.812Z,5.86
2023-04-08T00:52:38.031Z,5.85
2023-04-08T00:53:37.754Z,5.86
2023-04-08T00:54:37.648Z,5.90
2023-04-08T00:55:37.541Z,5.89
2023-04-08T00:56:37.513Z,5.85
2023-04-08T00:57:37.439Z,5.85
2023-04-08T00:58:37.389Z,5.83
2023-04-08T00:59:37.281Z,5.83
2023-04-08T01:00:37.222Z,5.79
2023-04-08T01:01:37.217Z,5.75
2023-04-08T01:02:37.433Z,5.74
2023-04-08T01:03:37.157Z,5.71
2023-04-08T01:04:37.014Z,5.71
2023-04-08T01:05:36.907Z,5.68
2023-04-08T01:06:36.872Z,5.64
2023-04-08T01:07:36.831Z,5.63
2023-04-08T01:08:36.718Z,5.60
2023-04-08T01:09:36.686Z,5.57
2023-04-08T01:10:36.659Z,5.54
2023-04-08T01:11:36.550Z,5.53
2023-04-08T01:12:36.499Z,5.49
2023-04-08T01:13:36.440Z,5.46
2023-04-08T01:14:36.340Z,5.48
2023-04-08T01:15:36.367Z,5.48
2023-04-08T01:16:36.228Z,5.51
2023-04-08T01:17:36.225Z,5.51
2023-04-08T01:18:36.118Z,5.51
2023-04-08T01:19:36.046Z,5.51
2023-04-08T01:20:35.991Z,5.48
2023-04-08T01:21:35.921Z,5.49
2023-04-08T01:23:00.910Z,5.48
2023-04-08T01:23:35.804Z,5.49
2023-04-08T01:24:35.761Z,5.49
2023-04-08T01:25:35.715Z,5.49
2023-04-08T01:26:35.584Z,5.48
2023-04-08T01:27:35.522Z,5.46
2023-04-08T01:28:35.523Z,5.40
2023-04-08T01:29:35.483Z,5.38
2023-04-08T01:30:35.323Z,5.33
2023-04-08T01:31:35.324Z,5.28
2023-04-08T01:32:35.248Z,5.27
2023-04-08T01:33:35.191Z,5.22
2023-04-08T01:35:46.882Z,5.21
2023-04-08T01:36:45.302Z,5.20
2023-04-08T01:37:45.246Z,5.18
2023-04-08T01:38:45.206Z,5.15
2023-04-08T01:40:06.124Z,5.15
2023-04-08T01:40:45.056Z,5.13
2023-04-08T01:41:45.031Z,5.13
2023-04-08T01:42:44.926Z,5.12
2023-04-08T01:43:44.865Z,5.13
2023-04-08T01:44:44.805Z,5.15
2023-04-08T01:45:44.787Z,5.15
2023-04-08T01:46:44.785Z,5.20
2023-04-08T01:47:44.673Z,5.20
2023-04-08T01:48:44.566Z,5.20
2023-04-08T01:49:44.479Z,5.20
2023-04-08T01:50:44.401Z,5.21
2023-04-08T01:51:44.377Z,5.24
2023-04-08T01:52:44.288Z,5.24
2023-04-08T01:53:44.284Z,5.27
2023-04-08T01:54:44.195Z,5.30
2023-04-08T01:55:44.140Z,5.33
2023-04-08T01:56:44.041Z,5.36
2023-04-08T01:57:44.009Z,5.38
2023-04-08T01:58:43.939Z,5.38
2023-04-08T01:59:43.854Z,5.40
2023-04-08T02:00:43.809Z,5.39
2023-04-08T02:01:43.766Z,5.42
2023-04-08T02:02:43.748Z,5.42
2023-04-08T02:03:43.702Z,5.46
2023-04-08T02:04:43.647Z,5.46
2023-04-08T02:05:43.493Z,5.49
2023-04-08T02:06:43.434Z,5.54
2023-04-08T02:07:43.407Z,5.57
2023-04-08T02:08:43.253Z,5.60
2023-04-08T02:09:43.256Z,5.63
2023-04-08T02:10:43.133Z,5.65
2023-04-08T02:11:43.088Z,5.68
2023-04-08T02:12:43.060Z,5.72
2023-04-08T02:13:42.974Z,5.76
2023-04-08T02:14:42.898Z,5.82
2023-04-08T02:15:44.066Z,5.85
2023-04-08T02:16:42.843Z,5.89
2023-04-08T02:17:42.719Z,5.96
2023-04-08T02:18:42.671Z,5.99
2023-04-08T02:19:42.587Z,6.00
2023-04-08T02:20:42.513Z,6.04
2023-04-08T02:21:42.498Z,6.08
2023-04-08T02:22:42.425Z,6.09
2023-04-08T02:23:42.362Z,6.12
2023-04-08T02:24:42.260Z,6.14
2023-04-08T02:25:42.201Z,6.15
2023-04-08T02:26:42.180Z,6.12
2023-04-08T02:27:42.094Z,6.11
2023-04-08T02:28:42.017Z,6.08
2023-04-08T02:29:41.918Z,6.08
2023-04-08T02:30:41.877Z,6.06
2023-04-08T02:31:41.892Z,6.03
2023-04-08T02:32:41.797Z,6.04
2023-04-08T02:36:00.220Z,6.06
2023-04-08T02:37:01.067Z,6.08
2023-04-08T02:38:01.006Z,6.08
2023-04-08T02:39:00.914Z,6.08
2023-04-08T02:40:00.915Z,6.04
2023-04-08T02:41:00.822Z,6.01
2023-04-08T02:42:00.758Z,6.00
2023-04-08T02:43:00.720Z,5.96
2023-04-08T02:44:00.625Z,5.94
2023-04-08T02:45:00.550Z,5.91
2023-04-08T02:46:00.532Z,5.90
2023-04-08T02:47:00.451Z,5.86
2023-04-08T02:48:00.452Z,5.86
2023-04-08T02:49:00.292Z,5.89
2023-04-08T02:50:00.222Z,5.89
2023-04-08T02:51:00.182Z,5.90
2023-04-08T02:52:00.136Z,5.93
2023-04-08T02:53:21.087Z,5.93
2023-04-08T02:53:59.999Z,5.96
2023-04-08T02:54:59.924Z,5.97
2023-04-08T02:55:59.896Z,5.99
2023-04-08T02:56:59.804Z,6.03
2023-04-08T02:57:59.774Z,6.04
2023-04-08T02:58:59.714Z,6.06
2023-04-08T02:59:59.624Z,6.04
2023-04-08T03:00:59.579Z,6.06
2023-04-08T03:01:59.574Z,6.06
2023-04-08T03:02:59.782Z,6.08
2023-04-08T03:03:59.433Z,6.08
2023-04-08T03:04:59.308Z,6.09
2023-04-08T03:05:59.229Z,6.09
2023-04-08T03:06:59.174Z,6.11
2023-04-08T03:07:59.117Z,6.12
2023-04-08T03:08:59.048Z,6.14
2023-04-08T03:09:59.012Z,6.12
2023-04-08T03:13:17.391Z,6.17
2023-04-08T03:14:18.311Z,6.14
2023-04-08T03:15:18.248Z,6.14
2023-04-08T03:16:18.239Z,6.11
2023-04-08T03:17:18.148Z,6.14
2023-04-08T03:18:18.042Z,6.14
2023-04-08T03:19:17.968Z,6.14
2023-04-08T03:20:17.931Z,6.14
2023-04-08T03:21:17.870Z,6.15
2023-04-08T03:22:17.802Z,6.17
2023-04-08T03:23:17.719Z,6.15
2023-04-08T03:24:17.694Z,6.17
2023-04-08T03:25:17.599Z,6.15
2023-04-08T03:26:17.555Z,6.17
2023-04-08T03:27:17.464Z,6.18
2023-04-08T03:28:17.427Z,6.18
2023-04-08T03:29:17.391Z,6.18
2023-04-08T03:32:35.802Z,6.19
2023-04-08T03:33:36.642Z,6.18
2023-04-08T03:34:36.610Z,6.18
2023-04-08T03:35:36.563Z,6.19
2023-04-08T03:36:36.455Z,6.19
2023-04-08T03:37:36.400Z,6.19
2023-04-08T03:38:36.326Z,6.25
2023-04-08T03:39:36.289Z,6.25
2023-04-08T03:40:36.228Z,6.25
2023-04-08T03:41:36.172Z,6.27
2023-04-08T03:42:36.097Z,6.27
2023-04-08T03:43:38.056Z,6.27
2023-04-08T03:44:35.995Z,6.27
2023-04-08T03:45:36.110Z,6.28
2023-04-08T03:46:35.825Z,6.30
2023-04-08T03:47:35.770Z,6.30
2023-04-08T03:48:35.718Z,6.30
2023-04-08T03:49:35.737Z,6.28
2023-04-08T03:50:35.592Z,6.25
2023-04-08T03:51:35.507Z,6.19
2023-04-08T03:52:35.455Z,6.22
2023-04-08T03:53:35.399Z,6.21
2023-04-08T03:54:35.333Z,6.19
2023-04-08T03:55:35.328Z,6.18
2023-04-08T03:56:35.276Z,6.15
2023-04-08T03:57:35.143Z,6.12
2023-04-08T03:58:35.089Z,6.09
2023-04-08T03:59:35.054Z,6.11
2023-04-08T04:00:34.986Z,6.11
2023-04-08T04:01:34.953Z,6.09
2023-04-08T04:02:34.937Z,6.11
2023-04-08T04:03:34.858Z,6.14
2023-04-08T04:04:34.748Z,6.14
2023-04-08T04:05:34.660Z,6.14
2023-04-08T04:06:34.552Z,6.14
2023-04-08T04:07:34.558Z,6.14
2023-04-08T04:08:34.474Z,6.14
2023-04-08T04:09:34.465Z,6.14
2023-04-08T04:10:34.348Z,6.14
2023-04-08T04:11:34.266Z,6.17
2023-04-08T04:12:34.228Z,6.14
2023-04-08T04:13:34.143Z,6.14
2023-04-08T04:14:34.042Z,6.11
2023-04-08T04:15:33.996Z,6.12
2023-04-08T04:16:33.948Z,6.12
2023-04-08T04:17:33.914Z,6.12
2023-04-08T04:18:33.822Z,6.14
2023-04-08T04:19:33.795Z,6.15
2023-04-08T04:20:33.644Z,6.17
2023-04-08T04:21:33.652Z,6.21
2023-04-08T04:22:33.589Z,6.21
2023-04-08T04:23:33.501Z,6.22
2023-04-08T04:24:33.378Z,6.22
2023-04-08T04:25:37.417Z,6.21
2023-04-08T04:26:33.267Z,6.21
2023-04-08T04:27:33.162Z,6.19
2023-04-08T04:28:33.102Z,6.18
2023-04-08T04:29:33.044Z,6.19
2023-04-08T04:30:32.980Z,6.18
2023-04-08T04:31:32.996Z,6.21
2023-04-08T04:32:32.878Z,6.18
2023-04-08T04:33:32.785Z,6.14
2023-04-08T04:34:32.750Z,6.11
2023-04-08T04:35:32.670Z,6.08
2023-04-08T04:36:32.641Z,6.04
2023-04-08T04:37:32.538Z,6.03
2023-04-08T04:38:32.516Z,6.00
2023-04-08T04:39:32.459Z,5.97
2023-04-08T04:40:32.387Z,5.94
2023-04-08T04:41:32.307Z,5.94
2023-04-08T04:42:32.244Z,5.94
2023-04-08T04:43:34.603Z,5.91
2023-04-08T04:44:32.133Z,5.93
2023-04-08T04:45:32.054Z,5.94
2023-04-08T04:46:32.021Z,5.93
2023-04-08T04:47:31.941Z,5.93
2023-04-08T04:48:31.850Z,5.91
2023-04-08T04:49:31.823Z,5.91
2023-04-08T04:50:31.724Z,5.96
2023-04-08T04:51:31.667Z,5.97
2023-04-08T04:52:31.598Z,5.94
2023-04-08T04:53:31.808Z,5.94
2023-04-08T04:54:31.454Z,5.90
2023-04-08T04:55:31.507Z,5.89
2023-04-08T04:56:31.327Z,5.85
2023-04-08T04:57:31.290Z,5.83
2023-04-08T04:58:31.219Z,5.83
2023-04-08T04:59:31.157Z,5.82
2023-04-08T05:00:31.099Z,5.79
2023-04-08T05:03:49.464Z,5.79
2023-04-08T05:04:50.365Z,5.76
2023-04-08T05:05:50.296Z,5.79
2023-04-08T05:06:50.240Z,5.76
2023-04-08T05:07:50.170Z,5.78
2023-04-08T05:08:50.295Z,5.79
2023-04-08T05:09:50.070Z,5.82
2023-04-08T05:10:50.018Z,5.82
2023-04-08T05:11:49.916Z,5.82
2023-04-08T05:12:49.829Z,5.85
2023-04-08T05:13:49.838Z,5.82
2023-04-08T05:14:49.710Z,5.83
2023-04-08T05:15:49.730Z,5.83
2023-04-08T05:16:49.609Z,5.81
2023-04-08T05:17:49.590Z,5.81
2023-04-08T05:18:49.804Z,5.81
2023-04-08T05:19:49.419Z,5.79
2023-04-08T05:23:07.682Z,5.76
2023-04-08T05:24:08.629Z,5.75
2023-04-08T05:25:08.569Z,5.75
2023-04-08T05:26:08.517Z,5.74
2023-04-08T05:27:08.437Z,5.71
2023-04-08T05:28:08.358Z,5.74
2023-04-08T05:29:08.371Z,5.72
2023-04-08T05:30:08.279Z,5.75
2023-04-08T05:31:08.259Z,5.75
2023-04-08T05:32:08.151Z,5.76
2023-04-08T05:33:08.091Z,5.78
2023-04-08T05:34:08.049Z,5.82
2023-04-08T05:35:07.938Z,5.85
2023-04-08T05:36:07.865Z,5.86
2023-04-08T05:37:07.806Z,5.89
2023-04-08T05:38:07.763Z,5.86
2023-04-08T05:39:07.702Z,5.85
2023-04-08T05:40:08.854Z,5.89
2023-04-08T05:41:07.557Z,5.85
2023-04-08T05:42:07.481Z,5.82
2023-04-08T05:43:07.467Z,5.79
2023-04-08T05:44:07.376Z,5.81
2023-04-08T05:45:07.278Z,5.81
2023-04-08T05:46:07.255Z,5.78
2023-04-08T05:47:07.225Z,5.76
2023-04-08T05:48:07.236Z,5.76
2023-04-08T05:49:07.051Z,5.75
2023-04-08T05:50:07.018Z,5.75
2023-04-08T05:51:06.942Z,5.74
2023-04-08T05:52:06.944Z,5.75
2023-04-08T05:53:06.811Z,5.74
2023-04-08T05:54:06.784Z,5.76
2023-04-08T05:55:06.683Z,5.79
2023-04-08T05:56:06.616Z,5.86
2023-04-08T05:57:08.099Z,5.89
2023-04-08T05:58:06.488Z,5.90
2023-04-08T05:59:06.415Z,5.90
2023-04-08T06:00:06.378Z,5.90
2023-04-08T06:01:06.286Z,5.90
2023-04-08T06:02:06.335Z,5.89
2023-04-08T06:03:06.314Z,5.91
2023-04-08T06:04:06.300Z,5.91
2023-04-08T06:05:06.091Z,5.91
2023-04-08T06:06:05.965Z,5.93
2023-04-08T06:07:05.934Z,5.94
2023-04-08T06:08:05.842Z,5.97
2023-04-08T06:09:05.804Z,5.99
2023-04-08T06:10:05.745Z,6.00
2023-04-08T06:11:05.689Z,6.00
2023-04-08T06:12:05.585Z,6.01
2023-04-08T06:13:05.536Z,6.01
2023-04-08T06:14:05.433Z,6.01
2023-04-08T06:15:05.405Z,6.00
2023-04-08T06:16:05.347Z,5.99
2023-04-08T06:17:05.306Z,6.00
2023-04-08T06:18:05.266Z,5.97
2023-04-08T06:19:05.141Z,6.00
2023-04-08T06:20:05.058Z,6.01
2023-04-08T06:21:05.025Z,6.01
2023-04-08T06:22:04.966Z,5.99
2023-04-08T06:23:04.872Z,6.00
2023-04-08T06:24:04.820Z,6.00
2023-04-08T06:25:04.759Z,6.00
2023-04-08T06:26:04.699Z,6.04
2023-04-08T06:27:04.649Z,6.06
2023-04-08T06:28:04.590Z,6.04
2023-04-08T06:29:04.508Z,6.09
2023-04-08T06:30:04.464Z,6.09
2023-04-08T06:31:04.401Z,6.09
2023-04-08T06:32:04.445Z,6.12
2023-04-08T06:33:04.272Z,6.17
2023-04-08T06:34:06.592Z,6.17
2023-04-08T06:35:04.139Z,6.15
2023-04-08T06:36:04.126Z,6.12
2023-04-08T06:37:03.996Z,6.12
2023-04-08T06:38:03.949Z,6.08
2023-04-08T06:39:03.879Z,6.09
2023-04-08T06:40:03.835Z,6.08
2023-04-08T06:41:03.763Z,6.06
2023-04-08T06:42:03.719Z,6.06
2023-04-08T06:43:03.599Z,6.08
2023-04-08T06:44:03.589Z,6.09
2023-04-08T06:45:03.534Z,6.12
2023-04-08T06:46:03.512Z,6.14
2023-04-08T06:47:03.347Z,6.12
2023-04-08T06:48:03.428Z,6.15
2023-04-08T06:49:03.255Z,6.14
2023-04-08T06:50:03.199Z,6.14
2023-04-08T06:51:03.139Z,6.17
2023-04-08T06:52:05.508Z,6.17
2023-04-08T06:53:02.980Z,6.19
2023-04-08T06:54:02.932Z,6.21
2023-04-08T06:55:02.895Z,6.19
2023-04-08T06:56:02.837Z,6.19
2023-04-08T06:57:02.716Z,6.21
2023-04-08T06:58:02.700Z,6.21
2023-04-08T06:59:02.614Z,6.22
2023-04-08T07:00:02.562Z,6.22
2023-04-08T07:01:02.537Z,6.25
2023-04-08T07:02:02.474Z,6.25
2023-04-08T07:03:02.407Z,6.28
2023-04-08T07:04:02.472Z,6.25
2023-04-08T07:05:02.213Z,6.25
2023-04-08T07:06:02.181Z,6.19
2023-04-08T07:07:02.124Z,6.18
2023-04-08T07:08:02.065Z,6.17
2023-04-08T07:09:01.965Z,6.15
2023-04-08T07:12:20.306Z,6.15
2023-04-08T07:13:21.213Z,6.14
2023-04-08T07:14:21.164Z,6.14
2023-04-08T07:15:21.144Z,6.15
2023-04-08T07:16:21.084Z,6.17
2023-04-08T07:17:21.019Z,6.12
2023-04-08T07:18:20.936Z,6.09
2023-04-08T07:19:20.816Z,6.11
2023-04-08T07:20:20.813Z,6.09
2023-04-08T07:21:20.721Z,6.11
2023-04-08T07:22:20.649Z,6.14
2023-04-08T07:23:20.612Z,6.17
2023-04-08T07:24:20.556Z,6.19
2023-04-08T07:25:20.521Z,6.22
2023-04-08T07:26:20.380Z,6.25
2023-04-08T07:27:20.363Z,6.28
2023-04-08T07:28:20.314Z,6.31
2023-04-08T07:29:20.229Z,6.31
2023-04-08T07:30:20.184Z,6.33
2023-04-08T07:31:20.126Z,6.33
2023-04-08T07:32:20.029Z,6.33
2023-04-08T07:33:19.957Z,6.34
2023-04-08T07:34:19.947Z,6.38
2023-04-08T07:35:19.866Z,6.40
2023-04-08T07:36:19.802Z,6.41
2023-04-08T07:37:19.710Z,6.46
2023-04-08T07:38:19.682Z,6.49
2023-04-08T07:39:19.592Z,6.54
2023-04-08T07:40:19.520Z,6.51
2023-04-08T07:41:19.471Z,6.54
2023-04-08T07:42:19.363Z,6.55
2023-04-08T07:43:19.302Z,6.58
2023-04-08T07:44:19.266Z,6.62
2023-04-08T07:45:19.198Z,6.67
2023-04-08T07:46:19.145Z,6.71
2023-04-08T07:49:37.475Z,6.84
2023-04-08T07:51:08.458Z,6.84
2023-04-08T07:51:38.319Z,6.85
2023-04-08T07:52:38.245Z,6.85
2023-04-08T07:53:38.289Z,6.85
2023-04-08T07:54:38.170Z,6.81
2023-04-08T07:55:38.075Z,6.77
2023-04-08T07:56:37.957Z,6.76
2023-04-08T07:57:37.929Z,6.76
2023-04-08T07:58:37.859Z,6.73
2023-04-08T07:59:37.797Z,6.74
2023-04-08T08:00:37.722Z,6.74
2023-04-08T08:01:37.681Z,6.73
2023-04-08T08:02:37.633Z,6.79
2023-04-08T08:03:37.811Z,6.81
2023-04-08T08:04:37.660Z,6.81
2023-04-08T08:05:37.396Z,6.84
2023-04-08T08:08:55.700Z,6.85
2023-04-08T08:09:56.628Z,6.87
2023-04-08T08:10:56.586Z,6.88
2023-04-08T08:11:56.532Z,6.89
2023-04-08T08:12:56.471Z,6.89
2023-04-08T08:13:56.372Z,6.88
2023-04-08T08:14:56.314Z,6.88
2023-04-08T08:15:56.274Z,6.89
2023-04-08T08:16:56.185Z,6.92
2023-04-08T08:17:56.207Z,6.94
2023-04-08T08:18:56.084Z,6.94
2023-04-08T08:19:56.004Z,6.95
2023-04-08T08:20:55.960Z,6.92
2023-04-08T08:21:55.874Z,6.97
2023-04-08T08:22:57.897Z,6.99
2023-04-08T08:23:55.770Z,7.05
2023-04-08T08:24:56.496Z,7.09
2023-04-08T08:28:13.964Z,7.17
2023-04-08T08:29:14.895Z,7.15
2023-04-08T08:30:14.855Z,7.12
2023-04-08T08:31:14.825Z,7.15
2023-04-08T08:32:14.705Z,7.15
2023-04-08T08:33:14.667Z,7.15
2023-04-08T08:34:14.614Z,7.16
2023-04-08T08:35:14.541Z,7.15
2023-04-08T08:36:14.521Z,7.16
2023-04-08T08:37:14.386Z,7.17
2023-04-08T08:38:14.352Z,7.21
2023-04-08T08:39:14.305Z,7.24
2023-04-08T08:40:14.204Z,7.25
2023-04-08T08:41:14.139Z,7.25
2023-04-08T08:42:14.097Z,7.28
2023-04-08T08:43:14.009Z,7.30
2023-04-08T08:44:13.947Z,7.32
2023-04-08T08:45:15.114Z,7.35
2023-04-08T08:46:13.855Z,7.39
2023-04-08T08:47:13.727Z,7.43
2023-04-08T08:48:13.666Z,7.48
2023-04-08T08:49:13.681Z,7.52
2023-04-08T08:50:13.569Z,7.50
2023-04-08T08:51:13.521Z,7.53
2023-04-08T08:52:13.436Z,7.50
2023-04-08T08:53:13.373Z,7.53
2023-04-08T08:54:13.307Z,7.55
2023-04-08T08:55:31.493Z,7.58
2023-04-08T08:56:18.342Z,7.61
2023-04-08T08:57:13.172Z,7.64
2023-04-08T08:58:13.087Z,7.67
2023-04-08T08:59:13.005Z,7.68
2023-04-08T09:00:12.902Z,7.71
2023-04-08T09:01:12.879Z,7.67
2023-04-08T09:02:12.831Z,7.67
2023-04-08T09:03:12.912Z,7.64
2023-04-08T09:04:12.990Z,7.67
2023-04-08T09:05:12.757Z,7.64
2023-04-08T09:06:12.849Z,7.61
2023-04-08T09:07:12.487Z,7.55
2023-04-08T09:08:12.416Z,7.52
2023-04-08T09:09:12.382Z,7.48
2023-04-08T09:10:12.294Z,7.43
2023-04-08T09:11:12.230Z,7.42
2023-04-08T09:12:12.179Z,7.39
2023-04-08T09:13:12.133Z,7.37
2023-04-08T09:14:12.050Z,7.34
2023-04-08T09:15:11.980Z,7.32
2023-04-08T09:16:11.975Z,7.30
2023-04-08T09:17:11.851Z,7.30
2023-04-08T09:18:11.791Z,7.30
2023-04-08T09:19:11.767Z,7.31
2023-04-08T09:20:11.686Z,7.35
2023-04-08T09:21:11.663Z,7.39
2023-04-08T09:22:11.563Z,7.39
2023-04-08T09:23:11.468Z,7.40
2023-04-08T09:24:11.427Z,7.43
2023-04-08T09:25:11.345Z,7.46
2023-04-08T09:26:11.254Z,7.46
2023-04-08T09:27:11.213Z,7.46
2023-04-08T09:28:11.129Z,7.43
2023-04-08T09:29:24.220Z,7.40
2023-04-08T09:30:11.048Z,7.40
2023-04-08T09:31:10.994Z,7.42
2023-04-08T09:32:10.889Z,7.40
2023-04-08T09:33:10.856Z,7.42
2023-04-08T09:34:10.772Z,7.40
2023-04-08T09:35:10.729Z,7.43
2023-04-08T09:36:10.694Z,7.48
2023-04-08T09:37:10.615Z,7.55
2023-04-08T09:38:10.495Z,7.57
2023-04-08T09:43:47.168Z,7.58
2023-04-08T09:44:48.114Z,7.57
2023-04-08T09:45:48.112Z,7.60
2023-04-08T09:46:47.983Z,7.58
2023-04-08T09:47:47.950Z,7.52
2023-04-08T09:48:47.857Z,7.49
2023-04-08T09:49:47.810Z,7.49
2023-04-08T09:50:47.694Z,7.48
2023-04-08T09:51:47.672Z,7.50
2023-04-08T09:52:47.567Z,7.53
2023-04-08T09:53:47.580Z,7.58
2023-04-08T09:54:47.468Z,7.63
2023-04-08T09:55:47.394Z,7.69
2023-04-08T09:56:47.330Z,7.72
2023-04-08T09:57:47.269Z,7.72
2023-04-08T09:58:47.211Z,7.75
2023-04-08T09:59:47.144Z,7.72
2023-04-08T10:00:49.842Z,7.72
2023-04-08T10:01:47.079Z,7.74
2023-04-08T10:02:47.117Z,7.79
2023-04-08T10:03:46.938Z,7.83
2023-04-08T10:04:46.845Z,7.86
2023-04-08T10:05:46.765Z,7.92
2023-04-08T10:06:46.758Z,7.93
2023-04-08T10:07:46.698Z,7.90
2023-04-08T10:08:46.561Z,7.83
2023-04-08T10:09:46.501Z,7.75
2023-04-08T10:10:47.927Z,7.72
2023-04-08T10:11:46.382Z,7.71
2023-04-08T10:12:46.338Z,7.71
2023-04-08T10:13:46.250Z,7.74
2023-04-08T10:14:46.189Z,7.75
2023-04-08T10:15:46.169Z,7.80
2023-04-08T10:16:46.109Z,7.80
2023-04-08T10:17:45.998Z,7.83
2023-04-08T10:21:04.271Z,7.87
2023-04-08T10:22:06.372Z,7.86
2023-04-08T10:23:05.151Z,7.87
2023-04-08T10:24:05.101Z,7.86
2023-04-08T10:25:05.020Z,7.89
2023-04-08T10:26:05.002Z,7.87
2023-04-08T10:27:04.919Z,7.90
2023-04-08T10:28:06.271Z,7.89
2023-04-08T10:29:04.769Z,7.85
2023-04-08T10:30:04.715Z,7.82
2023-04-08T10:31:04.688Z,7.77
2023-04-08T10:32:04.651Z,7.77
2023-04-08T10:33:04.581Z,7.82
2023-04-08T10:34:04.481Z,7.80
2023-04-08T10:35:04.409Z,7.75
2023-04-08T10:36:04.498Z,7.69
2023-04-08T10:37:04.268Z,7.64
2023-04-08T10:38:04.194Z,7.68
2023-04-08T10:39:04.144Z,7.67
2023-04-08T10:40:04.076Z,7.64
2023-04-08T10:41:03.997Z,7.67
2023-04-08T10:42:03.941Z,7.67
2023-04-08T10:43:03.881Z,7.69
2023-04-08T10:44:03.844Z,7.72
2023-04-08T10:45:03.761Z,7.77
2023-04-08T10:46:03.712Z,7.80
2023-04-08T10:47:03.666Z,7.83
2023-04-08T10:48:03.587Z,7.85
2023-04-08T10:49:03.485Z,7.90
2023-04-08T10:50:03.474Z,7.93
2023-04-08T10:51:03.407Z,7.93
2023-04-08T10:52:03.322Z,7.95
2023-04-08T10:53:03.294Z,7.93
2023-04-08T10:54:03.166Z,7.89
2023-04-08T10:55:03.143Z,7.80
2023-04-08T10:56:03.126Z,7.79
2023-04-08T10:57:03.009Z,7.77
2023-04-08T10:58:02.914Z,7.74
2023-04-08T10:59:02.885Z,7.74
2023-04-08T11:00:02.864Z,7.74
2023-04-08T11:01:02.825Z,7.79
2023-04-08T11:02:03.226Z,7.85
2023-04-08T11:03:02.790Z,7.87
2023-04-08T11:04:02.710Z,7.92
2023-04-08T11:05:02.505Z,8.00
2023-04-08T11:06:02.527Z,8.04
2023-04-08T11:07:02.394Z,8.10
2023-04-08T11:08:02.335Z,8.08
2023-04-08T11:09:02.253Z,8.07
2023-04-08T11:10:02.182Z,8.07
2023-04-08T11:11:02.152Z,8.08
2023-04-08T11:12:02.073Z,8.08
2023-04-08T11:13:01.982Z,8.05
2023-04-08T11:14:03.127Z,8.11
2023-04-08T11:15:01.930Z,8.12
2023-04-08T11:16:01.836Z,8.15
2023-04-08T11:17:01.773Z,8.16
2023-04-08T11:18:01.732Z,8.15
2023-04-08T11:19:01.678Z,8.12
2023-04-08T11:20:01.578Z,8.12
2023-04-08T11:21:01.582Z,8.19
2023-04-08T11:22:01.433Z,8.18
2023-04-08T11:23:01.380Z,8.16
2023-04-08T11:24:01.316Z,8.18
2023-04-08T11:25:01.248Z,8.16
2023-04-08T11:26:01.178Z,8.15
2023-04-08T11:27:01.102Z,8.11
2023-04-08T11:28:01.041Z,8.08
2023-04-08T11:29:00.983Z,8.08
2023-04-08T11:30:00.931Z,8.11
2023-04-08T11:31:00.996Z,8.18
2023-04-08T11:32:00.801Z,8.25
2023-04-08T11:33:00.830Z,8.28
2023-04-08T11:34:00.680Z,8.36
2023-04-08T11:35:00.587Z,8.44
2023-04-08T11:36:00.599Z,8.50
2023-04-08T11:37:00.466Z,8.52
2023-04-08T11:38:00.476Z,8.53
2023-04-08T11:39:00.435Z,8.61
2023-04-08T11:40:00.330Z,8.68
2023-04-08T11:41:00.308Z,8.80
2023-04-08T11:42:00.214Z,8.91
2023-04-08T11:43:00.110Z,8.99
2023-04-08T11:44:00.119Z,9.14
2023-04-08T11:44:59.983Z,9.21
2023-04-08T11:45:59.940Z,9.35
2023-04-08T11:46:59.885Z,9.48
2023-04-08T11:47:59.866Z,9.56
2023-04-08T11:48:59.763Z,9.60
2023-04-08T11:50:20.635Z,9.64
2023-04-08T11:50:59.577Z,9.69
2023-04-08T11:51:59.530Z,9.71
2023-04-08T11:52:59.504Z,9.64
2023-04-08T11:53:59.389Z,9.57
2023-04-08T11:54:59.363Z,9.53
2023-04-08T11:55:59.302Z,9.57
2023-04-08T11:56:59.228Z,9.71
2023-04-08T11:57:59.165Z,9.87
2023-04-08T11:58:59.106Z,10.04
2023-04-08T11:59:59.043Z,10.17
2023-04-08T12:00:58.997Z,10.25
2023-04-08T12:01:59.026Z,10.33
2023-04-08T12:02:58.910Z,10.38
2023-04-08T12:03:59.207Z,10.41
2023-04-08T12:04:58.781Z,10.42
2023-04-08T12:05:58.648Z,10.34
2023-04-08T12:06:58.655Z,10.22
2023-04-08T12:08:02.537Z,10.18
2023-04-08T12:08:58.469Z,10.17
2023-04-08T12:09:58.399Z,10.15
2023-04-08T12:11:09.287Z,10.11
2023-04-08T12:11:58.284Z,10.08
2023-04-08T12:12:58.237Z,9.99
2023-04-08T12:13:58.163Z,9.91
2023-04-08T12:14:58.086Z,9.86
2023-04-08T12:15:58.050Z,9.81
2023-04-08T12:16:58.004Z,9.78
2023-04-08T12:17:57.990Z,9.69
2023-04-08T12:18:57.841Z,9.54
2023-04-08T12:19:57.792Z,9.51
2023-04-08T12:20:57.770Z,9.56
2023-04-08T12:21:57.707Z,9.61
2023-04-08T12:22:57.613Z,9.60
2023-04-08T12:23:57.572Z,9.60
2023-04-08T12:24:59.214Z,9.56
2023-04-08T12:25:57.393Z,9.57
2023-04-08T12:26:57.477Z,9.56
2023-04-08T12:27:57.243Z,9.58
2023-04-08T12:28:57.203Z,9.64
2023-04-08T12:29:57.157Z,9.69
2023-04-08T12:30:57.057Z,9.71
2023-04-08T12:31:57.085Z,9.69
2023-04-08T12:32:56.972Z,9.68
2023-04-08T12:33:56.932Z,9.65
2023-04-08T12:34:56.858Z,9.61
2023-04-08T12:35:56.788Z,9.60
2023-04-08T12:36:56.708Z,9.64
2023-04-08T12:37:56.626Z,9.72
2023-04-08T12:38:56.604Z,9.79
2023-04-08T12:39:56.506Z,9.87
2023-04-08T12:40:56.415Z,9.83
2023-04-08T12:41:56.365Z,9.83
2023-04-08T12:42:56.287Z,9.84
2023-04-08T12:43:57.498Z,9.84
2023-04-08T12:44:56.224Z,9.86
2023-04-08T12:45:56.153Z,9.87
2023-04-08T12:46:56.113Z,9.90
2023-04-08T12:47:56.027Z,9.93
2023-04-08T12:49:03.091Z,9.94
2023-04-08T12:49:55.927Z,10.04
2023-04-08T12:50:55.786Z,10.07
2023-04-08T12:51:55.776Z,10.08
2023-04-08T12:52:55.659Z,10.15
2023-04-08T12:53:55.654Z,10.23
2023-04-08T12:54:55.559Z,10.29
2023-04-08T12:55:55.539Z,10.38
2023-04-08T12:56:55.445Z,10.44
2023-04-08T12:57:55.400Z,10.45
2023-04-08T12:58:55.279Z,10.47
2023-04-08T12:59:55.239Z,10.48
2023-04-08T13:00:55.220Z,10.52
2023-04-08T13:04:13.539Z,10.48
2023-04-08T13:05:14.400Z,10.51
2023-04-08T13:06:14.296Z,10.52
2023-04-08T13:07:14.244Z,10.53
2023-04-08T13:08:14.200Z,10.55
2023-04-08T13:09:14.140Z,10.55
2023-04-08T13:10:14.078Z,10.52
2023-04-08T13:11:14.009Z,10.55
2023-04-08T13:12:13.969Z,10.56
2023-04-08T13:13:13.859Z,10.63
2023-04-08T13:14:13.850Z,10.71
2023-04-08T13:15:13.782Z,10.73
2023-04-08T13:16:13.742Z,10.76
2023-04-08T13:17:13.600Z,10.79
2023-04-08T13:18:13.625Z,10.78
2023-04-08T13:19:13.531Z,10.81
2023-04-08T13:20:13.459Z,10.78
2023-04-08T13:21:13.400Z,10.82
2023-04-08T13:22:13.313Z,10.89
2023-04-08T13:23:13.250Z,10.92
2023-04-08T13:24:13.197Z,10.96
2023-04-08T13:25:13.124Z,11.00
2023-04-08T13:26:13.095Z,11.06
2023-04-08T13:27:12.995Z,11.06
2023-04-08T13:28:12.936Z,11.07
2023-04-08T13:29:12.874Z,11.11
2023-04-08T13:30:12.806Z,11.18
2023-04-08T13:31:12.715Z,11.25
2023-04-08T13:32:12.748Z,11.29
2023-04-08T13:33:12.608Z,11.35
2023-04-08T13:34:12.530Z,11.36
2023-04-08T13:35:12.488Z,11.32
2023-04-08T13:36:12.451Z,11.28
2023-04-08T13:37:12.364Z,11.22
2023-04-08T13:38:12.278Z,11.24
2023-04-08T13:39:12.254Z,11.25
2023-04-08T13:40:12.216Z,11.28
2023-04-08T13:41:12.098Z,11.32
2023-04-08T13:42:12.048Z,11.29
2023-04-08T13:43:11.957Z,11.19
2023-04-08T13:44:11.889Z,11.09
2023-04-08T13:45:11.868Z,11.04
2023-04-08T13:46:11.841Z,11.02
2023-04-08T13:47:11.728Z,11.04